Time;durP1;ratioP1;P1;durP2;ratioP2;P2;SDS_P1;SDS_P2;PMS_P1;PMS_P2;Temp;Humidity;BMP_temperature;BMP_pressure;BME280_temperature;BME280_humidity;BME280_pressure;Samples;Min_cycle;Max_cycle;Signal;HPM_P1;HPM_P2
2023/01/20 00:02:00;;;;;;;15.63;11.33;;;6.40;57.80;;;;;;4994996;28;20226;-50
2023/01/20 00:04:26;;;;;;;17.90;12.60;;;6.30;57.60;;;;;;5000110;28;20268;-49
2023/01/20 00:06:51;;;;;;;15.70;11.67;;;6.30;57.70;;;;;;5000417;28;20285;-50
2023/01/20 00:09:17;;;;;;;18.80;13.47;;;6.30;57.80;;;;;;5008585;28;20198;-50
2023/01/20 00:11:43;;;;;;;13.20;11.30;;;6.40;57.90;;;;;;5002214;28;20194;-50
2023/01/20 00:14:09;;;;;;;16.23;12.60;;;6.40;57.80;;;;;;5001156;28;21048;-50
2023/01/20 00:16:35;;;;;;;14.00;11.33;;;6.40;57.60;;;;;;5005137;28;20264;-50
2023/01/20 00:19:01;;;;;;;12.03;10.57;;;6.40;57.70;;;;;;4994318;28;20460;-49
2023/01/20 00:21:27;;;;;;;17.50;12.60;;;6.40;57.70;;;;;;5004246;28;20238;-49
2023/01/20 00:23:52;;;;;;;13.47;11.63;;;6.10;57.70;;;;;;4993250;28;20568;-51
2023/01/20 00:26:20;;;;;;;14.23;11.57;;;6.00;58.40;;;;;;5009325;28;20448;-50
2023/01/20 00:28:47;;;;;;;13.33;11.27;;;6.10;58.60;;;;;;5002210;28;20441;-50
2023/01/20 00:31:22;;;;;;;15.07;10.93;;;6.20;58.60;;;;;;5000501;28;20429;-50
2023/01/20 00:33:49;;;;;;;14.53;11.17;;;6.30;58.50;;;;;;5007199;28;20524;-51
2023/01/20 00:36:16;;;;;;;13.63;11.13;;;6.40;58.20;;;;;;4998705;28;20508;-52
2023/01/20 00:38:42;;;;;;;15.57;10.97;;;6.30;57.80;;;;;;5000292;28;20472;-50
2023/01/20 00:41:08;;;;;;;13.10;11.00;;;6.30;57.80;;;;;;5003391;28;20488;-50
2023/01/20 00:43:34;;;;;;;14.10;10.20;;;6.30;57.80;;;;;;4996157;28;20256;-50
2023/01/20 00:46:00;;;;;;;16.07;11.80;;;6.30;57.90;;;;;;5004929;28;20921;-49
2023/01/20 00:48:26;;;;;;;16.63;12.10;;;6.20;57.70;;;;;;5003865;28;20481;-51
2023/01/20 00:50:51;;;;;;;13.03;11.30;;;6.20;58.20;;;;;;5010597;28;20194;-52
2023/01/20 00:53:17;;;;;;;14.50;10.90;;;6.30;58.20;;;;;;5008221;28;20221;-50
2023/01/20 00:55:42;;;;;;;12.87;9.80;;;6.30;58.10;;;;;;5008145;28;20203;-49
2023/01/20 00:58:08;;;;;;;12.30;11.00;;;6.40;58.00;;;;;;5005816;28;20205;-49
2023/01/20 01:00:34;;;;;;;13.93;10.83;;;6.30;57.90;;;;;;5001401;28;20284;-50
2023/01/20 01:02:59;;;;;;;13.70;10.97;;;6.40;58.00;;;;;;5008932;28;20197;-50
2023/01/20 01:05:25;;;;;;;15.30;11.17;;;6.40;57.90;;;;;;5003465;28;20200;-49
2023/01/20 01:07:50;;;;;;;13.77;11.27;;;6.30;57.80;;;;;;5002522;28;20193;-50
2023/01/20 01:10:16;;;;;;;16.03;11.17;;;6.20;58.00;;;;;;4999774;28;20194;-51
2023/01/20 01:12:42;;;;;;;11.80;10.37;;;6.40;58.70;;;;;;5002272;28;20196;-50
2023/01/20 01:15:08;;;;;;;13.33;11.00;;;6.40;58.00;;;;;;5003893;28;20198;-50
2023/01/20 01:17:36;;;;;;;14.70;11.20;;;6.40;57.90;;;;;;5002189;28;20189;-53
2023/01/20 01:20:03;;;;;;;14.97;10.60;;;6.40;57.90;;;;;;5001815;28;20437;-50
2023/01/20 01:22:31;;;;;;;15.23;11.27;;;6.40;57.70;;;;;;5001634;28;20493;-51
2023/01/20 01:24:57;;;;;;;16.67;11.90;;;6.40;57.90;;;;;;5008135;28;20448;-51
2023/01/20 01:27:22;;;;;;;15.87;11.30;;;6.50;58.00;;;;;;5008980;28;20811;-50
2023/01/20 01:29:48;;;;;;;13.90;11.50;;;6.50;57.80;;;;;;5003397;28;20653;-52
2023/01/20 01:32:14;;;;;;;13.17;10.47;;;6.50;57.70;;;;;;5000786;28;20249;-50
2023/01/20 01:34:39;;;;;;;13.20;10.70;;;6.50;57.60;;;;;;4999979;28;20186;-50
2023/01/20 01:37:05;;;;;;;18.40;11.37;;;6.50;57.50;;;;;;5004639;28;20759;-51
2023/01/20 01:39:30;;;;;;;17.37;11.90;;;6.50;57.60;;;;;;5006160;28;20191;-50
2023/01/20 01:41:56;;;;;;;15.17;11.17;;;6.60;57.70;;;;;;5008990;28;20237;-50
2023/01/20 01:44:26;;;;;;;13.10;10.17;;;6.60;57.70;;;;;;5005363;28;20205;-50
2023/01/20 01:46:52;;;;;;;13.10;10.87;;;6.50;57.50;;;;;;5001511;28;20205;-50
2023/01/20 01:49:28;;;;;;;14.73;11.50;;;6.40;57.70;;;;;;5003552;28;21003;-51
2023/01/20 01:52:08;;;;;;;17.37;11.90;;;6.50;58.00;;;;;;5004184;28;20206;-50
2023/01/20 01:54:36;;;;;;;16.17;10.80;;;6.40;58.10;;;;;;4997504;28;20445;-51
2023/01/20 01:57:03;;;;;;;14.33;11.53;;;6.40;58.10;;;;;;5007945;28;20444;-50
2023/01/20 01:59:29;;;;;;;16.77;12.83;;;6.40;58.40;;;;;;5000894;28;20445;-51
2023/01/20 02:01:55;;;;;;;12.90;11.13;;;6.20;58.40;;;;;;5005629;28;20486;-49
2023/01/20 02:04:24;;;;;;;14.33;11.90;;;6.20;58.90;;;;;;5005207;28;20874;-49
2023/01/20 02:07:05;;;;;;;16.40;12.23;;;6.30;58.90;;;;;;4994612;28;20199;-49
2023/01/20 02:09:31;;;;;;;15.67;12.10;;;6.40;58.60;;;;;;4998390;28;20456;-49
2023/01/20 02:12:01;;;;;;;18.07;11.57;;;6.50;58.30;;;;;;5011237;28;20483;-50
2023/01/20 02:14:33;;;;;;;14.83;10.70;;;6.50;58.30;;;;;;4999392;28;20528;-49
2023/01/20 02:17:11;;;;;;;16.00;11.83;;;6.50;58.30;;;;;;5002259;28;20483;-49
2023/01/20 02:19:55;;;;;;;13.77;10.93;;;6.50;58.30;;;;;;4999619;28;20444;-52
2023/01/20 02:22:41;;;;;;;13.90;11.03;;;6.60;58.40;;;;;;5011110;28;20890;-50
2023/01/20 02:25:16;;;;;;;13.60;10.60;;;6.60;58.40;;;;;;5006223;28;20448;-50
2023/01/20 02:28:03;;;;;;;15.80;11.30;;;6.70;58.30;;;;;;5002383;28;20452;-50
2023/01/20 02:31:16;;;;;;;12.97;11.17;;;6.70;58.30;;;;;;5009195;28;20457;-52
2023/01/20 02:34:25;;;;;;;13.23;10.67;;;6.70;58.40;;;;;;4992405;28;20494;-50
2023/01/20 02:37:02;;;;;;;14.50;11.40;;;6.70;58.50;;;;;;4988663;28;20453;-49
2023/01/20 02:39:42;;;;;;;13.43;11.13;;;6.70;58.50;;;;;;5001555;28;20445;-53
2023/01/20 02:42:13;;;;;;;12.67;11.07;;;6.70;58.60;;;;;;4995042;28;20608;-50
2023/01/20 02:44:45;;;;;;;12.80;11.47;;;6.70;58.70;;;;;;5005302;28;20539;-52
2023/01/20 02:47:13;;;;;;;12.97;10.00;;;6.70;58.70;;;;;;5011274;28;20528;-50
2023/01/20 02:49:44;;;;;;;15.50;11.87;;;6.70;58.80;;;;;;5006789;28;20485;-51
2023/01/20 02:52:24;;;;;;;12.50;10.67;;;6.70;58.80;;;;;;5001721;28;20440;-50
2023/01/20 02:54:52;;;;;;;12.50;11.20;;;6.60;59.10;;;;;;5008054;28;20906;-53
2023/01/20 02:57:31;;;;;;;15.50;11.07;;;6.70;59.30;;;;;;5000712;28;20491;-50
2023/01/20 03:00:02;;;;;;;14.23;11.13;;;6.70;59.30;;;;;;5002335;28;20932;-53
2023/01/20 03:02:32;;;;;;;14.57;11.50;;;6.70;59.30;;;;;;4998185;28;20560;-53
2023/01/20 03:05:14;;;;;;;18.20;11.50;;;6.70;59.10;;;;;;5008003;28;20529;-50
2023/01/20 03:07:43;;;;;;;15.87;11.47;;;6.70;59.10;;;;;;4998879;28;20480;-52
2023/01/20 03:10:13;;;;;;;13.77;11.37;;;6.60;59.40;;;;;;4998328;28;20476;-53
2023/01/20 03:12:47;;;;;;;14.97;11.83;;;6.60;59.40;;;;;;4997318;28;20827;-54
2023/01/20 03:15:14;;;;;;;12.27;10.97;;;6.70;59.50;;;;;;5006668;28;20449;-51
2023/01/20 03:17:40;;;;;;;14.80;11.77;;;6.70;59.40;;;;;;5004142;28;20445;-49
2023/01/20 03:20:07;;;;;;;14.60;11.37;;;6.70;59.60;;;;;;4999183;28;20437;-52
2023/01/20 03:22:32;;;;;;;16.10;11.67;;;6.70;59.50;;;;;;5004763;28;20595;-49
2023/01/20 03:24:59;;;;;;;16.93;11.80;;;6.80;59.50;;;;;;4999346;28;20445;-50
2023/01/20 03:27:26;;;;;;;12.00;10.23;;;6.80;59.40;;;;;;5011633;28;20197;-49
2023/01/20 03:29:51;;;;;;;15.20;11.80;;;6.80;59.30;;;;;;5002118;28;21018;-50
2023/01/20 03:32:24;;;;;;;14.40;11.93;;;6.80;59.10;;;;;;5004036;28;20445;-51
2023/01/20 03:34:50;;;;;;;16.03;11.57;;;6.80;58.90;;;;;;5000615;28;20643;-49
2023/01/20 03:37:16;;;;;;;13.77;11.37;;;6.80;58.90;;;;;;5004404;28;20452;-50
2023/01/20 03:39:41;;;;;;;15.63;11.40;;;6.80;58.80;;;;;;4996865;28;20248;-51
2023/01/20 03:42:13;;;;;;;14.10;11.73;;;6.80;58.90;;;;;;4996319;28;20284;-50
2023/01/20 03:44:48;;;;;;;15.67;10.90;;;6.90;59.00;;;;;;5006412;28;20198;-52
2023/01/20 03:47:25;;;;;;;12.30;11.00;;;6.80;58.60;;;;;;4998416;28;20453;-52
2023/01/20 03:50:33;;;;;;;13.10;11.63;;;6.80;58.90;;;;;;5005835;28;20460;-53
2023/01/20 03:53:20;;;;;;;15.20;11.50;;;6.70;58.90;;;;;;4992711;28;20576;-50
2023/01/20 03:55:52;;;;;;;15.70;10.50;;;6.80;58.90;;;;;;5007308;28;20474;-49
2023/01/20 03:58:26;;;;;;;14.53;11.00;;;6.80;59.00;;;;;;4996522;28;20441;-52
2023/01/20 04:00:53;;;;;;;13.73;12.27;;;6.80;59.10;;;;;;5001021;28;20575;-51
2023/01/20 04:03:26;;;;;;;14.03;11.93;;;6.80;59.30;;;;;;5008814;28;20444;-51
2023/01/20 04:05:52;;;;;;;17.07;12.27;;;6.70;59.30;;;;;;5000787;28;20511;-51
2023/01/20 04:08:21;;;;;;;14.43;11.67;;;6.80;59.40;;;;;;5001246;28;20450;-51
2023/01/20 04:10:49;;;;;;;13.70;11.60;;;6.70;59.30;;;;;;5004403;28;20848;-53
2023/01/20 04:13:15;;;;;;;13.80;10.70;;;6.70;59.40;;;;;;5002514;28;20948;-52
2023/01/20 04:15:43;;;;;;;13.20;11.00;;;6.70;59.30;;;;;;4995446;28;20448;-52
2023/01/20 04:18:17;;;;;;;17.13;11.30;;;6.70;59.30;;;;;;5001639;28;20991;-52
2023/01/20 04:20:46;;;;;;;12.97;10.73;;;6.80;59.40;;;;;;4993160;28;20476;-50
2023/01/20 04:23:39;;;;;;;15.80;11.10;;;6.80;59.40;;;;;;5005776;28;20524;-52
2023/01/20 04:26:05;;;;;;;16.03;12.00;;;6.80;59.40;;;;;;5001858;28;20465;-50
2023/01/20 04:28:31;;;;;;;12.90;10.77;;;6.80;59.50;;;;;;4995327;28;20507;-50
2023/01/20 04:30:57;;;;;;;14.10;11.77;;;6.80;59.40;;;;;;5005290;28;20237;-51
2023/01/20 04:33:22;;;;;;;12.47;10.67;;;6.80;59.40;;;;;;4998351;28;20793;-51
2023/01/20 04:35:48;;;;;;;14.93;11.53;;;6.80;59.40;;;;;;5003290;28;20533;-49
2023/01/20 04:38:14;;;;;;;15.37;12.17;;;6.80;59.50;;;;;;5008683;28;20194;-49
2023/01/20 04:40:39;;;;;;;13.47;10.97;;;6.80;59.70;;;;;;5010919;28;20278;-51
2023/01/20 04:43:05;;;;;;;13.90;10.90;;;6.80;59.60;;;;;;5002403;28;20189;-50
2023/01/20 04:45:30;;;;;;;10.87;9.70;;;6.80;59.60;;;;;;4997306;28;20601;-49
2023/01/20 04:47:56;;;;;;;13.90;11.60;;;6.70;59.60;;;;;;5007596;28;20316;-49
2023/01/20 04:50:22;;;;;;;13.30;11.20;;;6.80;59.80;;;;;;4993542;28;20269;-51
2023/01/20 04:52:47;;;;;;;16.67;11.27;;;6.70;59.60;;;;;;5001321;28;20194;-54
2023/01/20 04:55:13;;;;;;;13.70;11.43;;;6.70;59.50;;;;;;5007423;28;20201;-49
2023/01/20 04:57:39;;;;;;;13.00;10.90;;;6.80;59.70;;;;;;5002741;28;20190;-50
2023/01/20 05:00:06;;;;;;;12.67;10.20;;;6.80;59.80;;;;;;5006697;28;20249;-53
2023/01/20 05:02:32;;;;;;;13.97;11.87;;;6.80;59.70;;;;;;5002967;28;20253;-50
2023/01/20 05:04:57;;;;;;;14.40;11.63;;;6.80;59.60;;;;;;4997681;28;20735;-50
2023/01/20 05:07:23;;;;;;;14.10;11.33;;;6.90;59.60;;;;;;5001094;28;20187;-50
2023/01/20 05:09:48;;;;;;;15.10;12.20;;;6.90;59.70;;;;;;5004480;28;20745;-51
2023/01/20 05:12:14;;;;;;;12.67;11.07;;;6.90;59.80;;;;;;4998889;28;20190;-51
2023/01/20 05:14:40;;;;;;;14.33;12.23;;;6.90;59.70;;;;;;5003368;28;20619;-51
2023/01/20 05:17:05;;;;;;;16.87;11.37;;;6.90;59.80;;;;;;5000139;28;20202;-51
2023/01/20 05:19:31;;;;;;;16.70;14.20;;;6.90;59.80;;;;;;5009024;28;20213;-50
2023/01/20 05:21:58;;;;;;;13.93;11.77;;;6.90;59.80;;;;;;4994614;28;20316;-50
2023/01/20 05:24:24;;;;;;;15.87;12.50;;;6.90;59.80;;;;;;4999474;28;20203;-51
2023/01/20 05:26:49;;;;;;;14.87;12.50;;;6.90;59.80;;;;;;4999014;28;20782;-51
2023/01/20 05:29:15;;;;;;;15.07;11.17;;;6.90;59.70;;;;;;4999378;28;20283;-51
2023/01/20 05:31:42;;;;;;;16.83;12.23;;;6.90;59.70;;;;;;5007407;28;20197;-51
2023/01/20 05:34:08;;;;;;;23.63;11.77;;;6.90;59.90;;;;;;5005365;28;20309;-51
2023/01/20 05:36:34;;;;;;;14.40;11.20;;;6.90;60.00;;;;;;4999166;28;20526;-50
2023/01/20 05:38:59;;;;;;;13.60;11.40;;;6.90;59.90;;;;;;5001513;28;20448;-51
2023/01/20 05:41:25;;;;;;;17.87;12.70;;;6.90;59.90;;;;;;5002735;28;20611;-50
2023/01/20 05:43:54;;;;;;;16.97;11.70;;;7.00;59.80;;;;;;4998966;28;20201;-50
2023/01/20 05:46:20;;;;;;;15.00;12.00;;;7.00;59.60;;;;;;5003455;28;20322;-54
2023/01/20 05:48:46;;;;;;;13.23;10.93;;;7.00;59.40;;;;;;5007251;28;20571;-50
2023/01/20 05:51:11;;;;;;;18.33;12.57;;;7.00;59.30;;;;;;5007678;28;21003;-51
2023/01/20 05:53:37;;;;;;;15.53;11.93;;;7.00;59.30;;;;;;5000379;28;20951;-52
2023/01/20 05:56:04;;;;;;;14.23;11.63;;;7.00;59.30;;;;;;5006695;28;20272;-51
2023/01/20 05:58:30;;;;;;;13.37;11.33;;;7.00;59.40;;;;;;5007107;28;20191;-51
2023/01/20 06:01:16;;;;;;;15.63;11.27;;;7.00;59.40;;;;;;5000406;28;20497;-52
2023/01/20 06:03:42;;;;;;;16.90;11.50;;;7.00;59.40;;;;;;4995922;28;20450;-50
2023/01/20 06:06:14;;;;;;;15.83;11.40;;;7.00;59.20;;;;;;5010102;28;20502;-50
2023/01/20 06:08:40;;;;;;;14.13;11.47;;;7.10;59.30;;;;;;5008699;28;20224;-50
2023/01/20 06:11:06;;;;;;;14.43;12.60;;;7.10;59.20;;;;;;5007473;28;20444;-51
2023/01/20 06:13:31;;;;;;;13.40;11.50;;;7.00;59.20;;;;;;5009184;28;20447;-50
2023/01/20 06:15:57;;;;;;;16.33;11.90;;;7.00;59.30;;;;;;5009187;28;20604;-53
2023/01/20 06:18:23;;;;;;;15.80;11.50;;;6.90;59.30;;;;;;4998131;28;20224;-50
2023/01/20 06:20:49;;;;;;;14.80;10.97;;;6.80;59.40;;;;;;4996528;28;20241;-51
2023/01/20 06:23:17;;;;;;;14.80;11.17;;;6.70;59.80;;;;;;5005175;28;20449;-53
2023/01/20 06:25:43;;;;;;;13.07;11.60;;;6.80;60.20;;;;;;5002968;28;20453;-51
2023/01/20 06:28:08;;;;;;;16.53;12.60;;;6.80;59.90;;;;;;5004869;28;20522;-50
2023/01/20 06:30:34;;;;;;;26.37;19.50;;;6.70;59.70;;;;;;5007777;28;20194;-51
2023/01/20 06:33:00;;;;;;;17.30;14.03;;;6.80;60.00;;;;;;5001527;28;20804;-50
2023/01/20 06:35:25;;;;;;;21.30;12.67;;;7.00;60.50;;;;;;5008501;28;20208;-51
2023/01/20 06:37:51;;;;;;;15.63;13.10;;;7.30;60.50;;;;;;5008137;28;20211;-51
2023/01/20 06:40:17;;;;;;;16.93;12.47;;;7.50;61.40;;;;;;5009123;28;20210;-54
2023/01/20 06:42:43;;;;;;;14.07;11.70;;;7.80;62.00;;;;;;5007973;28;20225;-51
2023/01/20 06:45:09;;;;;;;25.80;20.53;;;8.10;61.00;;;;;;5005911;28;20444;-50
2023/01/20 06:47:35;;;;;;;19.00;15.23;;;8.40;60.00;;;;;;5001680;28;20238;-51
2023/01/20 06:50:00;;;;;;;15.07;13.33;;;8.30;57.10;;;;;;5001003;28;20939;-51
2023/01/20 06:52:26;;;;;;;13.43;11.97;;;8.20;56.10;;;;;;5008220;28;20194;-50
2023/01/20 06:54:52;;;;;;;14.60;12.03;;;8.00;55.90;;;;;;5001054;28;20182;-52
2023/01/20 06:57:18;;;;;;;16.10;11.77;;;7.70;56.40;;;;;;5002497;28;20189;-51
2023/01/20 06:59:43;;;;;;;16.37;12.03;;;7.60;57.00;;;;;;4999805;28;20316;-54
2023/01/20 07:02:12;;;;;;;18.50;12.37;;;7.30;57.50;;;;;;5004942;28;20954;-52
2023/01/20 07:04:38;;;;;;;13.40;11.60;;;7.20;58.00;;;;;;5008561;28;20194;-51
2023/01/20 07:07:03;;;;;;;13.77;10.77;;;7.10;58.50;;;;;;5006246;28;20455;-51
2023/01/20 07:09:29;;;;;;;17.03;12.47;;;7.10;58.80;;;;;;5007553;28;20202;-53
2023/01/20 07:11:54;;;;;;;13.77;11.80;;;7.10;58.90;;;;;;4999396;28;20191;-53
2023/01/20 07:14:20;;;;;;;19.70;13.07;;;7.10;58.90;;;;;;5000094;28;20193;-52
2023/01/20 07:16:46;;;;;;;19.30;13.87;;;7.10;59.10;;;;;;5000996;28;20198;-51
2023/01/20 07:19:12;;;;;;;14.23;11.30;;;7.00;59.10;;;;;;5009790;28;20224;-52
2023/01/20 07:21:38;;;;;;;14.10;11.97;;;7.00;59.20;;;;;;5004860;28;20242;-54
2023/01/20 07:24:04;;;;;;;14.03;11.17;;;6.90;59.10;;;;;;5009312;28;20197;-50
2023/01/20 07:26:29;;;;;;;14.87;11.90;;;6.80;59.50;;;;;;4999388;28;20205;-52
2023/01/20 07:28:57;;;;;;;19.13;12.57;;;6.80;59.80;;;;;;5010184;28;20445;-51
2023/01/20 07:31:25;;;;;;;18.73;14.27;;;6.70;60.10;;;;;;5002704;28;20918;-53
2023/01/20 07:33:53;;;;;;;17.80;13.33;;;6.80;60.30;;;;;;5003342;28;20449;-52
2023/01/20 07:36:18;;;;;;;18.07;14.70;;;6.90;60.20;;;;;;5008638;28;20464;-53
2023/01/20 07:38:48;;;;;;;16.77;11.33;;;6.90;60.00;;;;;;5007204;28;20448;-53
2023/01/20 07:41:15;;;;;;;13.97;11.80;;;7.00;66.10;;;;;;5003521;28;20286;-53
2023/01/20 07:43:42;;;;;;;14.17;12.53;;;7.20;64.20;;;;;;5008118;28;20447;-52
2023/01/20 07:46:08;;;;;;;15.23;13.03;;;7.30;62.30;;;;;;5009615;28;20456;-51
2023/01/20 07:48:34;;;;;;;14.47;11.47;;;7.30;61.30;;;;;;5009661;28;20475;-54
2023/01/20 07:51:04;;;;;;;14.70;11.97;;;7.30;60.30;;;;;;5008553;28;20539;-54
2023/01/20 07:53:37;;;;;;;13.67;11.87;;;7.30;60.10;;;;;;5012559;28;20646;-51
2023/01/20 07:56:08;;;;;;;13.60;11.87;;;7.20;59.60;;;;;;5006708;28;20812;-50
2023/01/20 07:58:34;;;;;;;17.27;13.33;;;7.20;59.40;;;;;;4993017;28;20429;-51
2023/01/20 08:01:10;;;;;;;19.67;12.37;;;7.20;59.40;;;;;;5003148;28;20843;-52
2023/01/20 08:03:36;;;;;;;13.20;11.80;;;7.20;59.20;;;;;;5010745;28;20198;-53
2023/01/20 08:06:06;;;;;;;11.23;9.97;;;7.20;59.10;;;;;;5011884;28;20445;-54
2023/01/20 08:08:32;;;;;;;15.30;11.97;;;7.20;59.00;;;;;;5012150;28;20534;-50
2023/01/20 08:11:00;;;;;;;13.87;11.97;;;7.20;58.80;;;;;;5011035;28;20531;-51
2023/01/20 08:13:26;;;;;;;14.90;11.50;;;7.20;58.90;;;;;;5000870;28;20466;-51
2023/01/20 08:15:52;;;;;;;12.27;10.93;;;7.20;59.00;;;;;;5011754;28;20444;-51
2023/01/20 08:18:17;;;;;;;14.07;10.87;;;7.20;59.00;;;;;;4997784;28;20456;-51
2023/01/20 08:20:43;;;;;;;14.70;11.67;;;7.20;58.90;;;;;;5005343;28;20296;-51
2023/01/20 08:23:09;;;;;;;14.90;12.00;;;7.30;58.90;;;;;;5010675;28;20194;-51
2023/01/20 08:25:34;;;;;;;16.80;13.33;;;7.30;58.80;;;;;;5011597;28;20190;-51
2023/01/20 08:28:00;;;;;;;14.97;12.27;;;7.30;58.70;;;;;;5004684;28;20590;-53
2023/01/20 08:30:25;;;;;;;20.13;16.60;;;7.40;58.50;;;;;;4992496;28;20198;-53
2023/01/20 08:32:51;;;;;;;20.90;13.13;;;7.40;58.20;;;;;;4999698;28;20195;-51
2023/01/20 08:35:17;;;;;;;23.43;14.20;;;7.40;58.20;;;;;;5007426;28;20194;-51
2023/01/20 08:37:42;;;;;;;15.67;13.13;;;7.40;58.30;;;;;;5009578;28;20209;-52
2023/01/20 08:40:09;;;;;;;18.00;13.23;;;7.40;58.20;;;;;;5010593;28;20202;-52
2023/01/20 08:42:36;;;;;;;16.53;12.90;;;7.40;58.30;;;;;;5002823;28;20234;-50
2023/01/20 08:45:02;;;;;;;14.03;12.37;;;7.40;58.30;;;;;;5011322;28;20444;-51
2023/01/20 08:47:28;;;;;;;19.13;14.50;;;7.40;58.10;;;;;;5003581;28;20553;-55
2023/01/20 08:49:54;;;;;;;17.73;14.13;;;7.50;58.10;;;;;;5006463;28;20438;-51
2023/01/20 08:52:19;;;;;;;18.10;13.30;;;7.50;57.90;;;;;;5005252;28;20198;-54
2023/01/20 08:54:45;;;;;;;18.93;13.73;;;7.50;57.80;;;;;;5008275;28;20535;-53
2023/01/20 08:57:11;;;;;;;18.17;12.80;;;7.50;57.70;;;;;;5003339;28;20190;-52
2023/01/20 08:59:36;;;;;;;19.70;14.90;;;7.60;57.90;;;;;;5008444;28;20199;-52
2023/01/20 09:02:02;;;;;;;16.83;13.40;;;7.60;57.80;;;;;;4997272;28;20597;-55
2023/01/20 09:04:27;;;;;;;16.40;13.30;;;7.70;58.00;;;;;;5007833;28;20182;-53
2023/01/20 09:06:53;;;;;;;16.50;13.13;;;7.70;57.90;;;;;;5006853;28;20548;-54
2023/01/20 09:09:21;;;;;;;15.97;14.27;;;7.80;57.70;;;;;;5006130;28;20268;-54
2023/01/20 09:11:50;;;;;;;20.33;14.07;;;7.80;57.80;;;;;;5004455;28;20268;-52
2023/01/20 09:14:20;;;;;;;17.23;13.93;;;7.70;57.60;;;;;;5005753;28;20447;-52
2023/01/20 09:16:46;;;;;;;13.50;12.10;;;7.80;58.10;;;;;;5003373;28;20449;-52
2023/01/20 09:19:12;;;;;;;16.70;13.50;;;7.80;58.30;;;;;;5008522;28;20444;-52
2023/01/20 09:21:37;;;;;;;15.13;13.00;;;7.80;58.50;;;;;;5004464;28;20229;-52
2023/01/20 09:24:03;;;;;;;18.17;14.47;;;7.90;58.20;;;;;;4999230;28;20187;-53
2023/01/20 09:26:37;;;;;;;15.23;12.47;;;7.90;58.00;;;;;;5009562;28;20213;-52
2023/01/20 09:29:07;;;;;;;18.50;12.67;;;8.00;58.00;;;;;;5012621;28;20921;-52
2023/01/20 09:31:34;;;;;;;14.50;13.00;;;8.00;57.80;;;;;;5011310;28;20445;-51
2023/01/20 09:34:00;;;;;;;14.97;12.50;;;8.10;57.60;;;;;;5010762;28;20444;-53
2023/01/20 09:36:29;;;;;;;15.30;12.20;;;8.10;57.20;;;;;;5008280;28;20866;-51
2023/01/20 09:44:40;;;;;;;13.90;11.70;;;8.10;57.10;;;;;;5007812;28;20518;-53
2023/01/20 09:47:26;;;;;;;15.53;12.83;;;8.10;56.80;;;;;;5007152;28;20457;-52
2023/01/20 09:53:06;;;;;;;15.83;11.60;;;8.20;56.20;;;;;;5006227;28;20463;-52
2023/01/20 09:55:54;;;;;;;15.17;11.07;;;8.30;55.90;;;;;;5006200;28;20475;-55
2023/01/20 09:58:39;;;;;;;13.90;10.70;;;8.30;55.40;;;;;;4997680;28;20534;-52
2023/01/20 10:01:29;;;;;;;15.57;12.47;;;8.40;55.10;;;;;;5006553;28;20469;-51
2023/01/20 10:04:19;;;;;;;14.20;11.43;;;8.40;55.40;;;;;;4995577;28;20445;-52
2023/01/20 10:06:58;;;;;;;14.90;11.40;;;8.50;55.10;;;;;;5001748;28;20449;-54
2023/01/20 10:09:32;;;;;;;14.00;12.00;;;8.60;55.30;;;;;;5009324;28;20472;-51
2023/01/20 10:12:10;;;;;;;13.63;12.13;;;8.70;55.70;;;;;;5014251;28;20474;-52
2023/01/20 10:14:44;;;;;;;15.03;12.27;;;8.90;55.40;;;;;;5008500;28;20437;-51
2023/01/20 10:17:21;;;;;;;13.90;11.73;;;8.90;55.10;;;;;;4995871;28;20452;-54
2023/01/20 10:20:02;;;;;;;14.40;12.90;;;8.80;54.50;;;;;;5006726;28;20479;-53
2023/01/20 10:22:30;;;;;;;14.23;11.83;;;8.80;53.90;;;;;;4998152;28;20492;-51
2023/01/20 10:25:11;;;;;;;12.47;11.17;;;8.80;53.60;;;;;;5007677;28;20507;-52
2023/01/20 10:27:43;;;;;;;14.30;10.93;;;8.80;54.10;;;;;;5002956;28;20448;-51
2023/01/20 10:30:15;;;;;;;19.93;12.73;;;8.70;53.70;;;;;;5007048;28;20461;-53
2023/01/20 10:32:51;;;;;;;15.40;12.20;;;8.70;53.90;;;;;;5001103;28;20494;-55
2023/01/20 10:35:21;;;;;;;16.43;11.87;;;8.70;53.90;;;;;;4993297;28;20429;-54
2023/01/20 10:37:47;;;;;;;14.47;12.87;;;8.70;54.00;;;;;;5011579;28;20804;-52
2023/01/20 10:40:33;;;;;;;18.33;13.30;;;8.70;53.90;;;;;;5002636;28;20460;-56
2023/01/20 10:43:03;;;;;;;15.93;11.90;;;8.70;53.80;;;;;;5007332;28;20263;-52
2023/01/20 10:45:59;;;;;;;15.83;11.70;;;8.70;54.10;;;;;;5008669;28;20449;-54
2023/01/20 10:48:28;;;;;;;17.00;13.10;;;8.70;53.90;;;;;;4993945;28;20857;-51
2023/01/20 10:51:21;;;;;;;14.63;12.87;;;8.70;54.00;;;;;;5006786;28;20810;-52
2023/01/20 10:54:03;;;;;;;14.70;12.30;;;8.70;54.60;;;;;;4997406;28;20446;-52
2023/01/20 10:56:38;;;;;;;17.30;13.10;;;8.80;53.90;;;;;;5006846;28;20496;-56
2023/01/20 10:59:26;;;;;;;16.50;14.00;;;8.80;53.90;;;;;;4998402;28;20459;-55
2023/01/20 11:01:53;;;;;;;15.03;13.13;;;8.90;53.50;;;;;;5010120;28;20579;-52
2023/01/20 11:04:20;;;;;;;14.30;11.80;;;8.90;53.40;;;;;;5011271;28;20544;-54
2023/01/20 11:06:56;;;;;;;14.00;11.57;;;8.90;53.50;;;;;;4998672;28;20437;-54
2023/01/20 11:09:33;;;;;;;13.83;11.73;;;8.90;53.50;;;;;;5012800;28;20490;-53
2023/01/20 11:12:02;;;;;;;15.60;12.27;;;8.90;53.50;;;;;;5012202;28;20441;-52
2023/01/20 11:14:28;;;;;;;14.03;11.90;;;8.90;53.40;;;;;;5013039;28;20428;-52
2023/01/20 11:17:03;;;;;;;14.27;11.77;;;8.90;53.80;;;;;;4999072;28;20456;-54
2023/01/20 11:19:48;;;;;;;15.37;12.07;;;9.00;53.90;;;;;;5001937;28;20492;-53
2023/01/20 11:22:25;;;;;;;14.03;11.70;;;9.10;53.70;;;;;;4997255;28;21004;-53
2023/01/20 11:24:54;;;;;;;15.00;11.00;;;9.10;54.70;;;;;;5006051;28;20518;-57
2023/01/20 11:27:23;;;;;;;14.00;11.37;;;9.20;54.20;;;;;;4999045;28;20456;-55
2023/01/20 11:29:54;;;;;;;13.77;12.03;;;9.20;53.60;;;;;;5132420;23;20444;-55
2023/01/20 11:32:35;;;;;;;16.90;12.37;;;9.30;53.70;;;;;;5020292;28;20495;-56
2023/01/20 11:35:17;;;;;;;14.70;11.90;;;9.40;54.00;;;;;;5023725;28;20439;-57
2023/01/20 11:37:43;;;;;;;18.10;12.33;;;9.50;54.20;;;;;;5018168;28;20473;-56
2023/01/20 11:40:25;;;;;;;15.63;12.20;;;9.70;53.80;;;;;;5022881;28;20958;-56
2023/01/20 11:42:52;;;;;;;13.80;11.70;;;9.60;53.70;;;;;;5020745;28;20229;-56
2023/01/20 11:45:35;;;;;;;15.40;10.97;;;9.60;53.20;;;;;;5032100;28;20882;-55
2023/01/20 11:48:11;;;;;;;18.10;13.03;;;9.60;53.40;;;;;;5030243;28;20452;-56
2023/01/20 11:50:48;;;;;;;12.80;11.07;;;9.50;52.90;;;;;;5030021;28;20430;-56
2023/01/20 11:53:24;;;;;;;14.83;10.90;;;9.70;53.50;;;;;;5027404;28;20459;-56
2023/01/20 11:56:01;;;;;;;17.20;11.53;;;9.70;53.20;;;;;;5030251;28;20559;-56
2023/01/20 11:58:31;;;;;;;11.47;10.27;;;9.60;52.60;;;;;;5028066;28;20485;-56
2023/01/20 12:01:03;;;;;;;12.43;10.67;;;9.70;53.10;;;;;;5030373;28;20959;-55
2023/01/20 12:04:03;;;;;;;12.27;10.20;;;9.80;52.60;;;;;;5025891;28;20837;-56
2023/01/20 12:06:45;;;;;;;13.20;10.10;;;9.90;53.30;;;;;;5029362;28;20441;-56
2023/01/20 12:09:17;;;;;;;11.07;8.70;;;10.00;51.90;;;;;;5025267;28;20506;-55
2023/01/20 12:12:08;;;;;;;12.50;8.60;;;10.10;50.60;;;;;;5028829;28;20455;-56
2023/01/20 12:14:45;;;;;;;9.83;8.73;;;10.10;49.60;;;;;;5021712;28;20451;-55
2023/01/20 12:17:17;;;;;;;12.57;9.70;;;10.20;50.00;;;;;;5024507;28;20447;-55
2023/01/20 12:20:10;;;;;;;11.47;9.00;;;10.30;50.70;;;;;;5031316;28;20827;-55
2023/01/20 12:22:48;;;;;;;13.03;10.30;;;10.40;50.50;;;;;;5025777;28;20530;-56
2023/01/20 12:25:24;;;;;;;11.70;8.80;;;10.40;50.00;;;;;;5020826;28;20512;-55
2023/01/20 12:28:03;;;;;;;12.33;7.67;;;10.50;49.00;;;;;;5014892;28;20436;-55
2023/01/20 12:30:47;;;;;;;9.23;5.90;;;10.50;47.90;;;;;;5029813;28;20507;-55
2023/01/20 12:33:24;;;;;;;7.40;5.57;;;10.30;47.30;;;;;;5024609;28;20487;-55
2023/01/20 12:36:15;;;;;;;8.10;6.17;;;10.30;48.20;;;;;;5028754;28;20452;-55
2023/01/20 12:39:18;;;;;;;7.43;6.03;;;10.20;48.20;;;;;;5025874;28;20486;-56
2023/01/20 12:42:12;;;;;;;7.13;6.10;;;10.30;48.00;;;;;;5027328;28;20844;-54
2023/01/20 12:44:43;;;;;;;8.67;6.90;;;10.20;48.00;;;;;;5026136;28;20432;-55
2023/01/20 12:47:15;;;;;;;7.57;5.60;;;10.20;47.70;;;;;;5027695;28;20443;-55
2023/01/20 12:49:58;;;;;;;9.00;5.90;;;10.30;47.50;;;;;;5028078;28;20458;-56
2023/01/20 12:52:54;;;;;;;9.33;7.10;;;10.30;47.10;;;;;;5017706;28;20436;-54
2023/01/20 12:55:38;;;;;;;6.83;5.37;;;10.20;47.30;;;;;;5023877;28;20443;-54
2023/01/20 12:58:12;;;;;;;8.83;6.30;;;10.10;46.80;;;;;;5018744;28;20456;-55
2023/01/20 13:01:01;;;;;;;6.47;5.80;;;10.10;47.30;;;;;;5027274;28;20851;-54
2023/01/20 13:03:57;;;;;;;7.00;5.87;;;10.20;46.90;;;;;;5010242;28;20526;-55
2023/01/20 13:07:00;;;;;;;9.80;5.60;;;10.30;46.50;;;;;;5023264;28;20458;-55